Time;durP1;ratioP1;P1;durP2;ratioP2;P2;SDS_P1;SDS_P2;PMS_P1;PMS_P2;Temp;Humidity;BMP_temperature;BMP_pressure;BME280_temperature;BME280_humidity;BME280_pressure;Samples;Min_cycle;Max_cycle;Signal;HPM_P1;HPM_P2
2022/06/06 00:00:12;;;;;;;31.98;10.65;;;14.40;99.90;;;;;;5054055;28;20032;-87
2022/06/06 00:02:38;;;;;;;29.70;10.40;;;14.30;99.90;;;;;;5053876;28;20021;-87
2022/06/06 00:05:05;;;;;;;29.20;10.15;;;14.30;99.90;;;;;;5054998;28;20063;-86
2022/06/06 00:07:31;;;;;;;26.52;9.85;;;14.20;99.90;;;;;;5055545;28;20423;-88
2022/06/06 00:09:56;;;;;;;28.60;9.52;;;14.20;99.90;;;;;;5054049;28;20110;-87
2022/06/06 00:12:23;;;;;;;29.77;10.52;;;14.20;99.90;;;;;;5053856;28;20025;-87
2022/06/06 00:14:49;;;;;;;28.40;10.63;;;14.20;99.90;;;;;;5053598;28;20057;-88
2022/06/06 00:17:17;;;;;;;22.35;8.70;;;14.30;99.90;;;;;;5053665;28;20379;-88
2022/06/06 00:19:43;;;;;;;27.00;8.57;;;13.90;99.90;;;;;;5053101;28;20033;-87
2022/06/06 00:22:08;;;;;;;31.60;9.15;;;16.20;99.90;;;;;;5053532;28;20032;-87
2022/06/06 00:24:34;;;;;;;21.73;9.10;;;14.10;99.90;;;;;;5052930;28;20025;-87
2022/06/06 00:27:00;;;;;;;27.90;8.93;;;14.20;99.90;;;;;;5054104;28;20017;-88
2022/06/06 00:29:27;;;;;;;19.70;8.55;;;16.70;99.90;;;;;;5055577;28;20025;-87
2022/06/06 00:34:49;;;;;;;24.60;8.82;;;14.30;99.90;;;;;;5054303;28;20059;-89
2022/06/06 00:37:18;;;;;;;24.90;8.55;;;14.50;99.90;;;;;;5054620;28;20044;-88
2022/06/06 00:39:44;;;;;;;26.88;7.93;;;14.20;99.90;;;;;;5052986;28;20161;-88
2022/06/06 00:42:25;;;;;;;23.65;9.32;;;14.20;99.90;;;;;;5053275;28;20457;-87
2022/06/06 00:45:23;;;;;;;31.80;9.00;;;14.10;99.90;;;;;;5053356;28;20017;-87
2022/06/06 00:48:07;;;;;;;28.25;9.65;;;14.10;99.90;;;;;;5053305;28;20074;-88
2022/06/06 00:50:58;;;;;;;23.23;8.27;;;14.10;99.90;;;;;;5053077;28;20028;-87
2022/06/06 00:53:36;;;;;;;32.90;10.27;;;14.10;99.90;;;;;;5053945;28;20029;-89
2022/06/06 00:56:14;;;;;;;25.58;9.30;;;14.10;99.90;;;;;;5055083;28;20031;-87
2022/06/06 00:58:40;;;;;;;30.15;9.00;;;14.10;99.90;;;;;;5054433;28;20119;-86
2022/06/06 01:01:07;;;;;;;31.25;8.68;;;14.20;99.90;;;;;;5054678;28;20021;-87
2022/06/06 01:03:38;;;;;;;25.45;9.55;;;14.10;99.90;;;;;;5054619;28;20462;-86
2022/06/06 01:06:07;;;;;;;24.20;8.50;;;14.10;99.90;;;;;;5053589;28;20028;-87
2022/06/06 01:08:36;;;;;;;25.50;8.85;;;14.20;99.90;;;;;;5053624;28;20025;-87
2022/06/06 01:11:02;;;;;;;30.30;10.05;;;14.20;99.90;;;;;;5053316;28;20025;-87
2022/06/06 01:13:29;;;;;;;31.98;10.20;;;14.10;99.90;;;;;;5053246;28;20387;-87
2022/06/06 01:16:24;;;;;;;24.15;8.90;;;14.20;99.90;;;;;;5053021;28;20059;-87
2022/06/06 01:19:31;;;;;;;20.73;8.20;;;14.20;99.90;;;;;;5053223;28;20036;-87
2022/06/06 01:22:33;;;;;;;21.98;7.43;;;14.20;99.90;;;;;;5026479;28;20044;-86
2022/06/06 01:25:10;;;;;;;23.67;7.65;;;14.20;99.90;;;;;;5054370;28;20021;-87
2022/06/06 01:27:56;;;;;;;20.88;5.82;;;14.20;99.90;;;;;;5053137;28;20055;-88
2022/06/06 01:30:29;;;;;;;21.88;6.88;;;14.00;99.90;;;;;;5072686;22;20020;-88
2022/06/06 01:32:59;;;;;;;20.13;7.15;;;14.10;99.90;;;;;;5034091;28;20457;-87
2022/06/06 01:35:37;;;;;;;18.30;6.10;;;14.30;99.90;;;;;;5036409;28;20052;-87
2022/06/06 01:38:03;;;;;;;25.13;7.40;;;14.10;99.90;;;;;;5036687;28;20030;-88
2022/06/06 01:40:45;;;;;;;20.50;7.25;;;14.10;99.90;;;;;;5037191;28;20052;-87
2022/06/06 01:43:15;;;;;;;18.70;6.20;;;14.10;99.90;;;;;;5036622;28;20037;-87
2022/06/06 01:45:52;;;;;;;18.40;6.97;;;15.10;99.90;;;;;;5037069;28;20024;-88
2022/06/06 01:48:23;;;;;;;20.00;6.60;;;14.10;99.90;;;;;;5036755;28;20053;-88
2022/06/06 01:50:50;;;;;;;19.05;6.80;;;14.10;99.90;;;;;;5038254;28;20394;-89
2022/06/06 01:53:18;;;;;;;22.55;8.48;;;16.70;99.90;;;;;;5053206;28;20028;-88
2022/06/06 01:55:45;;;;;;;;;;;13.70;99.90;;;;;;5037278;28;20022;-87
2022/06/06 01:58:15;;;;;;;25.65;9.63;;;17.60;99.90;;;;;;5036649;28;19905;-87
2022/06/06 02:00:41;;;;;;;28.27;9.93;;;14.10;99.90;;;;;;5037656;28;20105;-87
2022/06/06 02:03:10;;;;;;;27.13;10.57;;;14.00;99.90;;;;;;5037543;28;20075;-88
2022/06/06 02:05:36;;;;;;;24.63;10.20;;;14.10;99.90;;;;;;5037517;28;20390;-88
2022/06/06 02:08:02;;;;;;;22.40;9.70;;;;;;;;;;5037536;28;20032;-87
2022/06/06 02:10:28;;;;;;;26.73;8.93;;;14.10;99.90;;;;;;5036144;28;20029;-87
2022/06/06 02:12:54;;;;;;;25.70;8.93;;;15.00;99.90;;;;;;5036279;28;20029;-88
2022/06/06 02:15:22;;;;;;;23.67;9.05;;;14.10;99.90;;;;;;5035936;28;20025;-87
2022/06/06 02:17:48;;;;;;;21.33;9.02;;;16.30;99.90;;;;;;5036058;28;20441;-87
2022/06/06 02:20:16;;;;;;;23.02;8.82;;;17.20;99.90;;;;;;5037412;28;20105;-87
2022/06/06 02:22:43;;;;;;;20.77;8.00;;;16.10;99.90;;;;;;5035753;28;20069;-89
2022/06/06 02:25:12;;;;;;;26.73;9.23;;;17.20;99.90;;;;;;5037043;28;20023;-87
2022/06/06 02:27:40;;;;;;;20.17;7.30;;;14.30;99.90;;;;;;5035851;28;20371;-88
2022/06/06 02:30:13;;;;;;;25.20;9.40;;;15.10;99.90;;;;;;5035711;28;20014;-87
2022/06/06 02:32:42;;;;;;;24.52;9.43;;;14.10;99.90;;;;;;5035860;28;20304;-88
2022/06/06 02:35:13;;;;;;;23.73;7.13;;;13.90;99.90;;;;;;5035757;28;20033;-88
2022/06/06 02:37:39;;;;;;;22.77;7.85;;;14.10;99.90;;;;;;5036060;28;20053;-88
2022/06/06 02:40:07;;;;;;;26.25;8.00;;;15.70;99.90;;;;;;5036447;28;20026;-89
2022/06/06 02:42:35;;;;;;;25.30;7.97;;;14.10;99.90;;;;;;5036437;28;20029;-87
2022/06/06 02:45:02;;;;;;;27.65;9.98;;;13.90;99.90;;;;;;5036860;28;20049;-88
2022/06/06 02:47:28;;;;;;;22.50;8.43;;;15.90;99.90;;;;;;5034737;28;20371;-87
2022/06/06 02:49:57;;;;;;;26.77;9.50;;;14.10;99.90;;;;;;5035655;28;20043;-88
2022/06/06 02:52:23;;;;;;;24.35;9.65;;;;;;;;;;5035234;28;20029;-89
2022/06/06 02:54:49;;;;;;;23.65;9.18;;;14.10;99.90;;;;;;5035556;28;20022;-88
2022/06/06 02:57:14;;;;;;;26.83;9.65;;;14.50;99.90;;;;;;5035550;28;20029;-89
2022/06/06 02:59:54;;;;;;;25.83;9.55;;;18.30;99.90;;;;;;5036475;28;20375;-88
2022/06/06 03:02:26;;;;;;;27.38;8.50;;;17.30;99.90;;;;;;5036699;28;20021;-89
2022/06/06 03:04:55;;;;;;;28.50;8.23;;;14.60;99.90;;;;;;5035256;28;20108;-88
2022/06/06 03:07:28;;;;;;;25.13;8.98;;;18.20;99.90;;;;;;5036756;28;20029;-88
2022/06/06 03:10:15;;;;;;;27.17;9.23;;;14.70;99.90;;;;;;5036469;28;20029;-88
2022/06/06 03:13:00;;;;;;;28.23;8.48;;;14.40;99.90;;;;;;5034901;28;20033;-88
2022/06/06 03:15:31;;;;;;;23.65;9.93;;;14.80;99.90;;;;;;5036388;28;20036;-87
2022/06/06 03:21:14;;;;;;;25.10;7.93;;;14.70;99.90;;;;;;5036115;28;20064;-87
2022/06/06 03:24:08;;;;;;;28.13;8.63;;;14.20;99.90;;;;;;5034544;28;20040;-87
2022/06/06 03:27:11;;;;;;;25.40;9.07;;;14.30;99.90;;;;;;5034587;28;20085;-87
2022/06/06 03:29:42;;;;;;;28.85;8.80;;;14.10;99.90;;;;;;5034666;28;20027;-88
2022/06/06 03:32:29;;;;;;;23.48;9.15;;;14.10;99.90;;;;;;5034394;28;20038;-87
2022/06/06 03:35:04;;;;;;;29.05;9.82;;;14.00;99.90;;;;;;5036252;28;20096;-87
2022/06/06 03:37:42;;;;;;;26.73;7.90;;;14.00;99.90;;;;;;5035971;28;20479;-87
2022/06/06 03:40:17;;;;;;;27.38;8.90;;;14.10;99.90;;;;;;5035932;28;20100;-87
2022/06/06 03:42:53;;;;;;;23.13;8.38;;;13.00;99.90;;;;;;5034226;28;20498;-87
2022/06/06 03:45:52;;;;;;;29.25;8.90;;;14.10;99.90;;;;;;5036112;28;20048;-87
2022/06/06 03:48:43;;;;;;;22.73;7.88;;;14.10;99.90;;;;;;5034541;28;20033;-87
2022/06/06 03:51:36;;;;;;;27.88;8.13;;;14.10;99.90;;;;;;5034454;28;20112;-88
2022/06/06 03:54:05;;;;;;;26.83;9.45;;;14.10;99.90;;;;;;5034581;28;20041;-87
2022/06/06 03:56:40;;;;;;;25.20;7.78;;;14.20;99.90;;;;;;5035830;28;20027;-86
2022/06/06 03:59:08;;;;;;;21.88;7.63;;;14.20;99.90;;;;;;5034720;28;20475;-87
2022/06/06 04:01:37;;;;;;;25.65;7.25;;;15.60;99.90;;;;;;5034382;28;20029;-88
2022/06/06 04:04:04;;;;;;;23.70;8.55;;;14.20;99.90;;;;;;5034046;28;20029;-87
2022/06/06 04:06:32;;;;;;;23.60;7.82;;;14.20;99.90;;;;;;5034116;28;20021;-87
2022/06/06 04:09:10;;;;;;;25.05;8.95;;;14.30;99.90;;;;;;5035633;28;20371;-87
2022/06/06 04:12:05;;;;;;;21.08;8.02;;;17.10;99.90;;;;;;5035290;28;20022;-87
2022/06/06 04:14:56;;;;;;;26.45;9.95;;;14.30;99.90;;;;;;5014412;28;20042;-87
2022/06/06 04:17:52;;;;;;;25.13;8.75;;;14.50;99.90;;;;;;5033911;28;20064;-87
2022/06/06 04:20:51;;;;;;;30.90;9.40;;;14.50;99.90;;;;;;5034736;28;20414;-88
2022/06/06 04:23:44;;;;;;;25.58;9.27;;;14.50;99.90;;;;;;5026268;28;20037;-87
2022/06/06 04:26:31;;;;;;;29.58;9.40;;;14.50;99.90;;;;;;5035232;28;20029;-87
2022/06/06 04:29:31;;;;;;;25.70;9.07;;;14.50;99.90;;;;;;5034328;28;20115;-87
2022/06/06 04:32:14;;;;;;;28.27;9.82;;;14.40;99.90;;;;;;5034343;28;20098;-87
2022/06/06 04:35:11;;;;;;;29.48;10.98;;;14.40;99.90;;;;;;5034106;28;20021;-87
2022/06/06 04:37:47;;;;;;;28.60;10.50;;;14.40;99.90;;;;;;5034417;28;20060;-86
2022/06/06 04:40:36;;;;;;;24.65;8.95;;;14.40;99.90;;;;;;5034168;28;20028;-89
2022/06/06 04:43:13;;;;;;;32.97;10.63;;;14.40;99.90;;;;;;5036542;28;20402;-87
2022/06/06 04:45:58;;;;;;;31.42;11.07;;;14.40;99.90;;;;;;5033325;28;20116;-88
2022/06/06 04:48:25;;;;;;;33.13;9.77;;;14.50;99.90;;;;;;5035169;28;20018;-87
2022/06/06 04:50:51;;;;;;;31.23;10.15;;;14.60;99.90;;;;;;5056332;22;20091;-72
2022/06/06 04:53:22;;;;;;;22.60;7.78;;;14.60;99.90;;;;;;5054577;28;20033;-72
2022/06/06 04:55:50;;;;;;;22.25;7.32;;;14.60;99.90;;;;;;5053275;28;20025;-72
2022/06/06 04:58:17;;;;;;;22.80;6.38;;;14.70;99.90;;;;;;5055013;28;20116;-72
2022/06/06 05:00:44;;;;;;;20.38;6.47;;;14.60;99.90;;;;;;5054429;28;20029;-72
2022/06/06 05:03:10;;;;;;;18.27;5.57;;;14.70;99.90;;;;;;5053288;28;20052;-72
2022/06/06 05:06:03;;;;;;;20.33;6.50;;;14.80;99.90;;;;;;5054787;28;20500;-72
2022/06/06 05:08:54;;;;;;;13.70;5.15;;;14.70;99.90;;;;;;5053586;28;20044;-72
2022/06/06 05:11:56;;;;;;;13.40;5.03;;;14.60;99.90;;;;;;5053217;28;20060;-72
2022/06/06 05:14:24;;;;;;;20.75;6.07;;;14.60;99.90;;;;;;5025440;28;20389;-72
2022/06/06 05:17:01;;;;;;;19.35;6.45;;;14.70;99.90;;;;;;5054562;28;20025;-72
2022/06/06 05:19:35;;;;;;;16.73;7.50;;;14.70;99.90;;;;;;5053571;28;20029;-72
2022/06/06 05:22:01;;;;;;;22.20;8.57;;;14.70;99.90;;;;;;5054852;28;20021;-72
2022/06/06 05:24:59;;;;;;;23.85;9.40;;;14.70;99.90;;;;;;5054076;28;20493;-72
2022/06/06 05:27:30;;;;;;;;;;;14.70;99.90;;;;;;5055243;28;20025;-72
2022/06/06 05:30:10;;;;;;;18.40;7.38;;;14.80;99.90;;;;;;5054809;28;19912;-72
2022/06/06 05:32:54;;;;;;;18.08;7.97;;;14.70;99.90;;;;;;5054502;28;20526;-72
2022/06/06 05:35:26;;;;;;;22.95;8.50;;;14.80;99.90;;;;;;5052864;28;20036;-72
2022/06/06 05:38:13;;;;;;;17.83;7.70;;;14.80;99.90;;;;;;5053909;28;20084;-72
2022/06/06 05:40:45;;;;;;;20.92;6.72;;;14.80;99.90;;;;;;5053922;28;20029;-72
2022/06/06 05:43:22;;;;;;;17.55;8.07;;;14.80;99.90;;;;;;5053905;28;20024;-72
2022/06/06 05:46:25;;;;;;;16.92;6.82;;;14.80;99.90;;;;;;5054634;28;20021;-72
2022/06/06 05:48:59;;;;;;;15.52;5.72;;;14.80;99.90;;;;;;5052887;28;20503;-72
2022/06/06 05:51:37;;;;;;;12.50;5.00;;;14.80;99.90;;;;;;5052959;28;20062;-72
2022/06/06 05:54:26;;;;;;;17.27;5.10;;;14.80;99.90;;;;;;5054399;28;20462;-72
2022/06/06 05:57:03;;;;;;;8.60;3.90;;;14.80;99.90;;;;;;5052831;28;20067;-72
2022/06/06 05:59:41;;;;;;;7.18;3.88;;;14.90;99.90;;;;;;5053778;28;20029;-72
2022/06/06 06:02:34;;;;;;;11.00;3.17;;;15.10;99.90;;;;;;5054233;28;20031;-72
2022/06/06 06:05:24;;;;;;;11.40;4.07;;;15.10;99.90;;;;;;5054159;28;20394;-72
2022/06/06 06:07:56;;;;;;;11.68;2.95;;;15.10;99.90;;;;;;5052796;28;20362;-72
2022/06/06 06:10:29;;;;;;;6.13;1.95;;;15.20;99.90;;;;;;5052542;28;20057;-72
2022/06/06 06:13:06;;;;;;;5.20;1.95;;;15.30;99.90;;;;;;5054443;28;20118;-72
2022/06/06 06:15:36;;;;;;;3.80;1.27;;;15.40;99.90;;;;;;5053995;28;20029;-72
2022/06/06 06:18:07;;;;;;;4.05;1.10;;;15.50;99.90;;;;;;5053856;28;20083;-72
2022/06/06 06:20:38;;;;;;;4.75;1.48;;;15.50;99.90;;;;;;5054142;28;20036;-72
2022/06/06 06:23:07;;;;;;;9.27;1.27;;;15.50;99.90;;;;;;5056435;28;20037;-72
2022/06/06 06:25:38;;;;;;;5.70;1.92;;;15.60;99.90;;;;;;5057495;28;20099;-72
2022/06/06 06:28:10;;;;;;;4.85;1.45;;;15.90;99.90;;;;;;5056352;28;20055;-72
2022/06/06 06:31:04;;;;;;;6.50;1.92;;;15.50;99.90;;;;;;5057557;28;20021;-72
2022/06/06 06:33:39;;;;;;;3.78;1.40;;;15.40;99.90;;;;;;5057347;28;20025;-71
2022/06/06 06:36:32;;;;;;;6.28;1.90;;;15.50;99.90;;;;;;5058206;28;20433;-71
2022/06/06 06:39:08;;;;;;;7.95;1.88;;;15.80;99.90;;;;;;5056670;28;20033;-71
2022/06/06 06:42:11;;;;;;;6.03;1.27;;;15.80;99.90;;;;;;5057651;28;20029;-71
2022/06/06 06:44:44;;;;;;;6.55;1.88;;;16.00;99.90;;;;;;5057401;28;20051;-71
2022/06/06 06:47:18;;;;;;;3.75;1.45;;;15.90;99.90;;;;;;5056649;28;20053;-71
2022/06/06 06:49:53;;;;;;;5.32;1.73;;;15.80;99.90;;;;;;5056525;28;20509;-71
2022/06/06 06:52:37;;;;;;;9.40;2.00;;;15.80;99.90;;;;;;5055583;28;20032;-71
2022/06/06 06:55:33;;;;;;;3.13;1.40;;;16.00;99.90;;;;;;5055362;28;20064;-71
2022/06/06 06:58:43;;;;;;;2.38;1.10;;;16.10;99.90;;;;;;5056884;28;20021;-71
2022/06/06 07:01:13;;;;;;;7.50;1.05;;;16.10;99.90;;;;;;5056682;28;20033;-71
2022/06/06 07:10:11;;;;;;;4.25;1.08;;;16.00;99.90;;;;;;5056914;28;20036;-72
2022/06/06 07:13:12;;;;;;;8.35;1.55;;;16.00;99.90;;;;;;5056952;28;20055;-72
2022/06/06 07:16:10;;;;;;;3.10;1.00;;;16.00;99.90;;;;;;5055249;28;20505;-72
2022/06/06 07:18:38;;;;;;;2.80;1.73;;;15.90;99.90;;;;;;5043056;28;20383;-72
2022/06/06 07:21:07;;;;;;;5.13;0.60;;;15.90;99.90;;;;;;5055240;28;20025;-73
2022/06/06 07:23:38;;;;;;;8.23;0.65;;;16.10;99.90;;;;;;5053986;28;20017;-74
2022/06/06 07:26:06;;;;;;;2.45;0.75;;;16.00;99.90;;;;;;5055366;28;20052;-74
2022/06/06 07:28:32;;;;;;;6.97;0.82;;;16.10;99.90;;;;;;5069585;22;21380;-73
2022/06/06 07:31:00;;;;;;;1.58;0.22;;;16.20;99.90;;;;;;5053955;28;20062;-73
2022/06/06 07:33:55;;;;;;;1.65;0.93;;;16.40;99.90;;;;;;5054768;28;20029;-73
2022/06/06 07:36:38;;;;;;;2.30;0.68;;;16.40;99.90;;;;;;5054962;28;20063;-73
2022/06/06 07:39:15;;;;;;;1.50;0.32;;;16.30;99.90;;;;;;5055352;28;20039;-73
2022/06/06 07:41:59;;;;;;;1.17;0.50;;;16.30;99.90;;;;;;5055327;28;20029;-73
2022/06/06 07:44:52;;;;;;;3.65;0.52;;;16.40;99.90;;;;;;5055326;28;20025;-73
2022/06/06 07:47:33;;;;;;;2.75;0.38;;;16.40;99.90;;;;;;5053529;28;20029;-73
2022/06/06 07:50:14;;;;;;;4.93;0.82;;;16.50;99.90;;;;;;5055418;28;20108;-73
2022/06/06 07:53:09;;;;;;;6.10;0.55;;;16.60;99.90;;;;;;5053495;28;20481;-73
2022/06/06 07:55:43;;;;;;;5.00;0.47;;;16.50;99.90;;;;;;5045153;28;20451;-73
2022/06/06 07:58:16;;;;;;;9.00;0.95;;;17.00;99.90;;;;;;5054726;28;20055;-73
2022/06/06 08:00:48;;;;;;;2.70;1.13;;;16.20;99.90;;;;;;5054515;28;20029;-73
2022/06/06 08:03:47;;;;;;;2.65;0.52;;;16.10;99.90;;;;;;5054573;28;20021;-73
2022/06/06 08:06:56;;;;;;;3.42;0.63;;;16.10;99.90;;;;;;5034939;28;20141;-74
2022/06/06 08:10:15;;;;;;;3.70;0.93;;;16.30;99.90;;;;;;5053175;28;20548;-74
2022/06/06 08:12:55;;;;;;;4.60;0.75;;;16.30;99.90;;;;;;5040997;28;20394;-74
2022/06/06 08:15:47;;;;;;;2.90;0.22;;;16.20;99.90;;;;;;5054911;28;20025;-74
2022/06/06 08:18:45;;;;;;;5.75;0.30;;;16.30;99.90;;;;;;5054852;28;20124;-74
2022/06/06 08:21:32;;;;;;;2.00;0.35;;;16.50;99.90;;;;;;5046007;28;20075;-74
2022/06/06 08:24:00;;;;;;;3.58;0.68;;;16.70;99.90;;;;;;5054390;28;20036;-74
2022/06/06 08:26:27;;;;;;;3.40;0.60;;;16.70;99.90;;;;;;5054043;28;20025;-73
2022/06/06 08:28:53;;;;;;;2.13;0.10;;;16.90;99.90;;;;;;5052699;28;20021;-75
2022/06/06 08:31:20;;;;;;;1.75;0.20;;;16.80;99.90;;;;;;5054235;28;20029;-74
2022/06/06 08:33:47;;;;;;;3.30;1.20;;;16.80;99.90;;;;;;5052732;28;20385;-75
2022/06/06 08:36:27;;;;;;;2.17;0.20;;;17.00;99.90;;;;;;5054425;28;20485;-74
2022/06/06 08:39:30;;;;;;;2.67;0.35;;;17.10;99.90;;;;;;5052608;28;20028;-74
2022/06/06 08:42:09;;;;;;;0.40;0.20;;;16.90;99.90;;;;;;5052718;28;20025;-73
2022/06/06 08:45:05;;;;;;;4.38;0.10;;;17.00;99.90;;;;;;5052357;28;20053;-74
2022/06/06 08:48:02;;;;;;;5.43;0.22;;;17.20;99.90;;;;;;5054493;28;20459;-74
2022/06/06 08:50:49;;;;;;;7.07;0.55;;;17.20;99.90;;;;;;5053945;28;20100;-74
2022/06/06 08:53:43;;;;;;;3.03;0.40;;;17.00;99.90;;;;;;5053827;28;20099;-74
2022/06/06 08:56:33;;;;;;;0.52;0.05;;;17.10;99.90;;;;;;5052468;28;20021;-74
2022/06/06 08:59:01;;;;;;;3.42;0.10;;;17.20;99.90;;;;;;5053597;28;20033;-74
2022/06/06 09:01:42;;;;;;;1.90;0.08;;;17.30;99.90;;;;;;5054204;28;20025;-74
2022/06/06 09:04:35;;;;;;;2.80;0.00;;;17.30;99.90;;;;;;5053728;28;20536;-73
2022/06/06 09:07:40;;;;;;;2.08;0.10;;;17.10;99.90;;;;;;5052561;28;20064;-74
2022/06/06 09:10:24;;;;;;;0.35;0.00;;;16.90;99.90;;;;;;5053505;28;20386;-74
2022/06/06 09:13:24;;;;;;;2.15;0.45;;;17.30;99.90;;;;;;5054304;28;20040;-73
2022/06/06 09:16:05;;;;;;;0.93;0.30;;;17.50;99.90;;;;;;5053543;28;20052;-74
2022/06/06 09:19:08;;;;;;;3.88;0.65;;;17.60;99.90;;;;;;5053386;28;20086;-74
2022/06/06 09:21:45;;;;;;;0.85;0.10;;;17.60;99.90;;;;;;5051956;28;20036;-74
2022/06/06 09:24:23;;;;;;;4.13;0.20;;;17.70;99.90;;;;;;5051838;28;20029;-74
2022/06/06 09:27:16;;;;;;;0.43;0.08;;;17.90;99.90;;;;;;5053400;28;20539;-74
2022/06/06 09:30:26;;;;;;;1.88;0.15;;;17.70;99.90;;;;;;5053079;28;20036;-74
2022/06/06 09:33:32;;;;;;;1.98;0.20;;;17.70;99.90;;;;;;5049949;28;20037;-74
2022/06/06 09:36:58;;;;;;;2.05;0.20;;;17.90;99.90;;;;;;5053426;28;20033;-74
2022/06/06 09:40:01;;;;;;;2.00;0.03;;;18.30;99.90;;;;;;4991829;28;20062;-74
2022/06/06 09:42:35;;;;;;;0.95;0.00;;;18.80;99.90;;;;;;4991582;28;20077;-75
2022/06/06 09:45:35;;;;;;;2.75;0.00;;;19.10;99.90;;;;;;5041017;28;20065;-75
2022/06/06 09:48:43;;;;;;;6.80;0.00;;;19.00;99.90;;;;;;5051816;28;20059;-74
2022/06/06 09:51:50;;;;;;;2.13;0.00;;;18.90;99.90;;;;;;5053454;28;20376;-74
2022/06/06 10:01:02;;;;;;;2.38;0.00;;;19.20;99.90;;;;;;5057107;28;20043;-73
2022/06/06 10:03:46;;;;;;;1.05;0.10;;;19.10;99.90;;;;;;5056992;28;20029;-73
2022/06/06 10:06:52;;;;;;;0.50;0.00;;;18.70;99.90;;;;;;5056698;28;20052;-73
2022/06/06 10:09:52;;;;;;;1.60;0.00;;;18.30;99.90;;;;;;5056736;28;20037;-73
2022/06/06 10:12:39;;;;;;;1.67;0.05;;;17.90;99.90;;;;;;5056617;28;20031;-73
2022/06/06 10:15:08;;;;;;;1.60;0.17;;;17.60;99.90;;;;;;5056442;28;20075;-75
2022/06/06 10:17:43;;;;;;;3.67;0.10;;;17.30;99.90;;;;;;5167263;22;20095;-76
2022/06/06 10:20:44;;;;;;;1.38;0.00;;;16.90;99.90;;;;;;5058710;28;20031;-76
2022/06/06 10:23:24;;;;;;;0.00;0.00;;;15.90;99.90;;;;;;5050592;28;20037;-75
2022/06/06 10:26:08;;;;;;;0.70;0.00;;;15.10;99.90;;;;;;5058741;28;20025;-75
2022/06/06 10:28:57;;;;;;;1.35;0.00;;;14.80;99.90;;;;;;5057471;28;20120;-75
2022/06/06 10:31:36;;;;;;;0.63;0.30;;;14.50;99.90;;;;;;5049222;28;20397;-76
2022/06/06 10:34:16;;;;;;;1.90;0.10;;;14.40;99.90;;;;;;5058748;28;20029;-76
2022/06/06 10:37:16;;;;;;;1.48;0.10;;;14.50;99.90;;;;;;5058154;28;20055;-76
2022/06/06 10:39:53;;;;;;;2.05;0.38;;;14.80;99.90;;;;;;5056840;28;20074;-76
2022/06/06 10:42:57;;;;;;;4.25;0.20;;;15.00;99.90;;;;;;5058079;28;20028;-76
2022/06/06 10:48:16;;;;;;;36.15;0.90;;;15.40;99.90;;;;;;5242965;22;20274;-74
2022/06/06 10:54:13;;;;;;;7.85;1.00;;;15.60;99.90;;;;;;5035987;28;20075;-74
2022/06/06 10:56:54;;;;;;;3.15;0.80;;;15.70;99.90;;;;;;5035623;28;20474;-75
2022/06/06 10:59:53;;;;;;;3.47;0.68;;;15.90;99.90;;;;;;5034618;28;20486;-74
2022/06/06 11:02:47;;;;;;;2.33;1.15;;;16.20;99.90;;;;;;5035964;28;20413;-75
2022/06/06 11:05:30;;;;;;;3.47;1.30;;;16.40;99.90;;;;;;5035548;28;20029;-75
2022/06/06 11:08:18;;;;;;;4.47;1.13;;;16.70;99.90;;;;;;5034923;28;20108;-73
2022/06/06 11:17:24;;;;;;;0.00;0.00;;;17.10;99.90;;;;;;5034297;28;20073;-75
2022/06/06 11:20:28;;;;;;;0.32;0.17;;;17.00;99.90;;;;;;5035578;28;20026;-74
2022/06/06 11:23:15;;;;;;;0.95;0.00;;;16.80;99.90;;;;;;5035231;28;20497;-75
2022/06/06 11:25:57;;;;;;;0.73;0.10;;;16.60;99.90;;;;;;5045710;28;20025;-75
2022/06/06 11:29:02;;;;;;;1.35;0.17;;;16.50;99.90;;;;;;5055519;28;20419;-74
2022/06/06 11:31:52;;;;;;;2.35;0.30;;;16.40;99.90;;;;;;5036428;28;20112;-74
2022/06/06 11:34:53;;;;;;;0.55;0.20;;;16.30;99.90;;;;;;5054982;28;20389;-74
2022/06/06 11:37:38;;;;;;;0.80;0.60;;;16.20;99.90;;;;;;5037043;28;20025;-74
2022/06/06 11:40:28;;;;;;;2.83;1.08;;;16.40;99.90;;;;;;5037088;28;20057;-75
2022/06/06 11:43:31;;;;;;;1.40;0.80;;;16.70;99.90;;;;;;5055073;28;20028;-75
2022/06/06 11:46:37;;;;;;;1.15;0.60;;;17.10;99.90;;;;;;5054950;28;20025;-75
2022/06/06 11:49:27;;;;;;;4.22;0.75;;;17.20;99.90;;;;;;4973979;28;20111;-75
2022/06/06 11:52:22;;;;;;;2.33;1.08;;;17.20;99.90;;;;;;4973989;28;20114;-75
2022/06/06 11:55:13;;;;;;;4.75;0.75;;;17.00;99.90;;;;;;5041702;28;20037;-75
2022/06/06 11:58:12;;;;;;;1.35;0.88;;;16.70;99.90;;;;;;5037195;28;20039;-76
2022/06/06 12:01:26;;;;;;;4.80;1.30;;;16.30;99.90;;;;;;5036737;28;20021;-73
2022/06/06 12:04:37;;;;;;;5.03;1.40;;;16.00;99.90;;;;;;5036748;28;20060;-73
2022/06/06 12:07:40;;;;;;;2.55;0.80;;;15.80;99.90;;;;;;5036457;28;20115;-73
2022/06/06 12:10:14;;;;;;;3.13;0.60;;;15.80;99.90;;;;;;5054337;28;20028;-73
2022/06/06 12:13:11;;;;;;;4.22;0.77;;;15.30;99.90;;;;;;5054307;28;20118;-75
2022/06/06 12:15:54;;;;;;;4.40;0.50;;;15.50;99.90;;;;;;5054133;28;20045;-74
2022/06/06 12:18:43;;;;;;;3.35;0.38;;;15.40;99.90;;;;;;5036527;28;20082;-75
2022/06/06 12:21:46;;;;;;;1.25;0.22;;;15.20;99.90;;;;;;5053872;28;20035;-74
2022/06/06 12:24:34;;;;;;;1.02;0.20;;;15.10;99.90;;;;;;5054011;28;20029;-74
2022/06/06 12:26:59;;;;;;;1.75;0.25;;;15.00;99.90;;;;;;5054222;28;20416;-75
2022/06/06 12:30:03;;;;;;;6.50;1.00;;;14.90;99.90;;;;;;5036087;28;20021;-75
2022/06/06 12:32:55;;;;;;;4.22;1.00;;;14.90;99.90;;;;;;5041206;28;20037;-74
2022/06/06 12:35:37;;;;;;;4.43;1.92;;;14.90;99.90;;;;;;5053826;28;20013;-74
2022/06/06 12:38:37;;;;;;;1.92;1.15;;;15.00;99.90;;;;;;5036037;28;20094;-74
2022/06/06 12:41:21;;;;;;;5.68;1.58;;;15.20;99.90;;;;;;5053955;28;20362;-75
2022/06/06 12:44:01;;;;;;;3.45;1.38;;;15.30;99.90;;;;;;5053882;28;20485;-74
2022/06/06 12:47:08;;;;;;;4.70;1.63;;;15.50;99.90;;;;;;5035861;28;20033;-74
2022/06/06 12:49:55;;;;;;;9.70;1.40;;;15.60;99.90;;;;;;5035914;28;20021;-74
2022/06/06 12:52:51;;;;;;;3.42;1.38;;;15.60;99.90;;;;;;5053637;28;20039;-74
2022/06/06 12:55:54;;;;;;;4.10;2.08;;;15.50;99.90;;;;;;5052252;28;20155;-74
2022/06/06 12:58:31;;;;;;;5.43;1.70;;;15.30;99.90;;;;;;5035597;28;20021;-74
2022/06/06 13:03:54;;;;;;;6.32;1.38;;;15.20;99.90;;;;;;5054076;28;20036;-74
2022/06/06 13:06:30;;;;;;;7.53;1.83;;;15.20;99.90;;;;;;5035485;28;20108;-74
2022/06/06 13:09:23;;;;;;;1.70;0.93;;;15.10;99.90;;;;;;5035706;28;20021;-74
2022/06/06 13:12:15;;;;;;;1.48;1.20;;;14.90;99.90;;;;;;5053336;28;20437;-74
2022/06/06 13:14:59;;;;;;;1.92;1.27;;;14.90;99.90;;;;;;5051815;28;20052;-74
2022/06/06 13:17:45;;;;;;;3.05;1.30;;;14.80;99.90;;;;;;5053405;28;20033;-74
2022/06/06 13:20:27;;;;;;;3.60;0.80;;;14.60;99.90;;;;;;5035489;28;20436;-75
2022/06/06 13:23:12;;;;;;;3.38;1.17;;;14.50;99.90;;;;;;5035292;28;20029;-75
2022/06/06 13:25:59;;;;;;;6.82;2.22;;;14.50;99.90;;;;;;5053101;28;20021;-74
2022/06/06 13:28:31;;;;;;;2.05;0.45;;;14.40;99.90;;;;;;5053343;28;20025;-74
2022/06/06 13:31:34;;;;;;;2.72;0.80;;;14.40;99.90;;;;;;5036233;28;20087;-74
2022/06/06 13:34:17;;;;;;;0.30;0.20;;;14.50;99.90;;;;;;5057271;28;20036;-74
2022/06/06 13:36:57;;;;;;;2.60;0.10;;;14.50;99.90;;;;;;5039172;28;20021;-74
2022/06/06 13:39:38;;;;;;;0.82;0.00;;;14.50;99.90;;;;;;5039244;28;20083;-74
2022/06/06 13:42:20;;;;;;;1.77;0.00;;;14.40;99.90;;;;;;5057633;28;20381;-75
2022/06/06 13:45:37;;;;;;;0.90;0.15;;;14.30;99.90;;;;;;5039277;28;20037;-74
2022/06/06 13:48:18;;;;;;;0.15;0.00;;;14.20;99.90;;;;;;5039335;28;20051;-75
2022/06/06 13:50:57;;;;;;;0.22;0.00;;;14.20;99.90;;;;;;5056897;28;20025;-75
2022/06/06 13:53:35;;;;;;;1.23;0.00;;;14.10;99.90;;;;;;5057538;28;20047;-74
2022/06/06 13:56:31;;;;;;;0.00;0.00;;;14.00;99.90;;;;;;5057289;28;20495;-74
2022/06/06 13:59:22;;;;;;;0.20;0.00;;;14.00;99.90;;;;;;5038838;28;20037;-74
2022/06/06 14:02:21;;;;;;;0.85;0.75;;;14.00;99.90;;;;;;5056819;28;20021;-74
2022/06/06 14:04:56;;;;;;;0.30;0.00;;;13.90;99.90;;;;;;5038770;28;20064;-75
2022/06/06 14:07:30;;;;;;;0.85;0.00;;;13.90;99.90;;;;;;5058820;28;20029;-74
2022/06/06 14:10:00;;;;;;;0.00;0.00;;;14.00;99.90;;;;;;5059654;28;20021;-74
2022/06/06 14:12:32;;;;;;;0.00;0.00;;;13.90;99.90;;;;;;5060304;28;20017;-74
2022/06/06 14:15:11;;;;;;;0.70;0.00;;;13.90;99.90;;;;;;5051277;23;20335;-75
2022/06/06 14:17:45;;;;;;;1.65;0.08;;;13.80;99.90;;;;;;5076968;28;20039;-74
2022/06/06 14:20:25;;;;;;;0.73;0.10;;;13.90;99.90;;;;;;5077079;28;20025;-73
2022/06/06 14:22:51;;;;;;;1.35;0.20;;;13.80;99.90;;;;;;5076463;28;20059;-73
2022/06/06 14:25:17;;;;;;;1.33;0.00;;;13.70;99.90;;;;;;5076318;28;20478;-73
2022/06/06 14:27:43;;;;;;;1.35;0.00;;;13.70;99.90;;;;;;5076299;28;20032;-73
2022/06/06 14:30:29;;;;;;;2.28;0.00;;;13.60;99.90;;;;;;5058488;28;20017;-73